sensor_id;sensor_type;location;lat;lon;timestamp;P1;durP1;ratioP1;P2;durP2;ratioP2
53389;SDS011;39288;42.970;1.524;2023-04-15T00:00:33;8.70;;;2.07;;
53389;SDS011;39288;42.970;1.524;2023-04-15T00:01:33;12.37;;;2.57;;
53389;SDS011;39288;42.970;1.524;2023-04-15T00:02:36;8.82;;;2.30;;
53389;SDS011;39288;42.970;1.524;2023-04-15T00:03:36;11.70;;;2.50;;
53389;SDS011;39288;42.970;1.524;2023-04-15T00:04:37;12.30;;;2.70;;
53389;SDS011;39288;42.970;1.524;2023-04-15T00:05:37;8.87;;;1.77;;
53389;SDS011;39288;42.970;1.524;2023-04-15T00:06:38;7.90;;;1.70;;
53389;SDS011;39288;42.970;1.524;2023-04-15T00:07:41;7.32;;;1.55;;
53389;SDS011;39288;42.970;1.524;2023-04-15T00:08:42;4.97;;;1.00;;
53389;SDS011;39288;42.970;1.524;2023-04-15T00:09:42;7.00;;;1.30;;
53389;SDS011;39288;42.970;1.524;2023-04-15T00:10:43;6.95;;;1.60;;
53389;SDS011;39288;42.970;1.524;2023-04-15T00:12:45;7.57;;;1.48;;
53389;SDS011;39288;42.970;1.524;2023-04-15T00:13:46;8.63;;;1.73;;
53389;SDS011;39288;42.970;1.524;2023-04-15T00:14:46;6.00;;;2.07;;
53389;SDS011;39288;42.970;1.524;2023-04-15T00:15:47;11.10;;;1.63;;
53389;SDS011;39288;42.970;1.524;2023-04-15T00:16:47;6.20;;;1.23;;
53389;SDS011;39288;42.970;1.524;2023-04-15T00:17:54;5.90;;;1.60;;
53389;SDS011;39288;42.970;1.524;2023-04-15T00:18:54;7.57;;;2.23;;
53389;SDS011;39288;42.970;1.524;2023-04-15T00:19:55;7.90;;;1.80;;
53389;SDS011;39288;42.970;1.524;2023-04-15T00:20:57;8.70;;;1.73;;
53389;SDS011;39288;42.970;1.524;2023-04-15T00:21:58;7.28;;;1.67;;
53389;SDS011;39288;42.970;1.524;2023-04-15T00:22:59;6.03;;;1.20;;
53389;SDS011;39288;42.970;1.524;2023-04-15T00:24:01;6.70;;;1.42;;
53389;SDS011;39288;42.970;1.524;2023-04-15T00:25:02;6.07;;;1.40;;
53389;SDS011;39288;42.970;1.524;2023-04-15T00:26:03;9.20;;;1.60;;
53389;SDS011;39288;42.970;1.524;2023-04-15T00:27:04;7.47;;;1.60;;
53389;SDS011;39288;42.970;1.524;2023-04-15T00:28:04;6.30;;;1.70;;
53389;SDS011;39288;42.970;1.524;2023-04-15T00:29:05;5.30;;;1.47;;
53389;SDS011;39288;42.970;1.524;2023-04-15T00:30:05;9.03;;;1.97;;
53389;SDS011;39288;42.970;1.524;2023-04-15T00:31:06;8.00;;;1.90;;
53389;SDS011;39288;42.970;1.524;2023-04-15T00:32:06;8.53;;;1.93;;
53389;SDS011;39288;42.970;1.524;2023-04-15T00:33:08;11.43;;;2.45;;
53389;SDS011;39288;42.970;1.524;2023-04-15T00:34:08;4.77;;;1.87;;
53389;SDS011;39288;42.970;1.524;2023-04-15T00:35:10;9.10;;;1.90;;
53389;SDS011;39288;42.970;1.524;2023-04-15T00:36:11;7.97;;;1.80;;
53389;SDS011;39288;42.970;1.524;2023-04-15T00:37:11;8.40;;;1.73;;
53389;SDS011;39288;42.970;1.524;2023-04-15T00:38:12;16.07;;;2.23;;
53389;SDS011;39288;42.970;1.524;2023-04-15T00:39:12;13.43;;;2.63;;
53389;SDS011;39288;42.970;1.524;2023-04-15T00:40:13;13.97;;;3.10;;
53389;SDS011;39288;42.970;1.524;2023-04-15T00:41:17;13.07;;;2.50;;
53389;SDS011;39288;42.970;1.524;2023-04-15T00:42:18;13.73;;;3.10;;
53389;SDS011;39288;42.970;1.524;2023-04-15T00:43:19;17.93;;;2.67;;
53389;SDS011;39288;42.970;1.524;2023-04-15T00:44:19;13.57;;;2.67;;
53389;SDS011;39288;42.970;1.524;2023-04-15T00:45:20;12.07;;;2.60;;
53389;SDS011;39288;42.970;1.524;2023-04-15T00:46:20;15.57;;;3.67;;
53389;SDS011;39288;42.970;1.524;2023-04-15T00:47:21;13.37;;;2.80;;
53389;SDS011;39288;42.970;1.524;2023-04-15T00:48:22;10.95;;;2.92;;
53389;SDS011;39288;42.970;1.524;2023-04-15T00:49:23;9.90;;;2.60;;
53389;SDS011;39288;42.970;1.524;2023-04-15T00:50:24;13.25;;;3.10;;
53389;SDS011;39288;42.970;1.524;2023-04-15T00:51:24;13.90;;;3.10;;
53389;SDS011;39288;42.970;1.524;2023-04-15T00:52:24;10.13;;;2.60;;
53389;SDS011;39288;42.970;1.524;2023-04-15T00:53:25;15.13;;;3.13;;
53389;SDS011;39288;42.970;1.524;2023-04-15T00:54:26;14.47;;;2.87;;
53389;SDS011;39288;42.970;1.524;2023-04-15T00:55:26;11.93;;;2.80;;
53389;SDS011;39288;42.970;1.524;2023-04-15T00:56:27;13.93;;;3.40;;
53389;SDS011;39288;42.970;1.524;2023-04-15T00:57:28;14.95;;;2.65;;
53389;SDS011;39288;42.970;1.524;2023-04-15T00:58:29;12.83;;;2.63;;
53389;SDS011;39288;42.970;1.524;2023-04-15T00:59:29;15.43;;;3.40;;
53389;SDS011;39288;42.970;1.524;2023-04-15T01:00:30;13.83;;;3.33;;
53389;SDS011;39288;42.970;1.524;2023-04-15T01:01:32;14.47;;;4.27;;
53389;SDS011;39288;42.970;1.524;2023-04-15T01:02:34;13.77;;;2.92;;
53389;SDS011;39288;42.970;1.524;2023-04-15T01:03:35;12.43;;;2.85;;
53389;SDS011;39288;42.970;1.524;2023-04-15T01:04:35;10.67;;;2.37;;
53389;SDS011;39288;42.970;1.524;2023-04-15T01:05:36;14.53;;;3.23;;
53389;SDS011;39288;42.970;1.524;2023-04-15T01:06:37;13.77;;;2.85;;
53389;SDS011;39288;42.970;1.524;2023-04-15T01:07:38;16.17;;;2.70;;
53389;SDS011;39288;42.970;1.524;2023-04-15T01:08:38;15.13;;;3.10;;
53389;SDS011;39288;42.970;1.524;2023-04-15T01:09:40;17.38;;;4.22;;
53389;SDS011;39288;42.970;1.524;2023-04-15T01:10:41;18.85;;;3.47;;
53389;SDS011;39288;42.970;1.524;2023-04-15T01:11:41;21.17;;;4.80;;
53389;SDS011;39288;42.970;1.524;2023-04-15T01:12:42;13.23;;;3.27;;
53389;SDS011;39288;42.970;1.524;2023-04-15T01:13:43;15.88;;;3.65;;
53389;SDS011;39288;42.970;1.524;2023-04-15T01:14:44;16.40;;;3.60;;
53389;SDS011;39288;42.970;1.524;2023-04-15T01:15:44;14.50;;;3.00;;
53389;SDS011;39288;42.970;1.524;2023-04-15T01:16:45;16.53;;;3.17;;
53389;SDS011;39288;42.970;1.524;2023-04-15T01:17:46;17.57;;;3.40;;
53389;SDS011;39288;42.970;1.524;2023-04-15T01:18:47;17.77;;;4.13;;
53389;SDS011;39288;42.970;1.524;2023-04-15T01:19:48;16.20;;;3.57;;
53389;SDS011;39288;42.970;1.524;2023-04-15T01:20:48;17.43;;;3.13;;
53389;SDS011;39288;42.970;1.524;2023-04-15T01:21:48;16.20;;;3.20;;
53389;SDS011;39288;42.970;1.524;2023-04-15T01:22:49;15.30;;;3.50;;
53389;SDS011;39288;42.970;1.524;2023-04-15T01:23:50;17.27;;;4.47;;
53389;SDS011;39288;42.970;1.524;2023-04-15T01:25:04;16.35;;;3.63;;
53389;SDS011;39288;42.970;1.524;2023-04-15T01:26:07;22.10;;;4.05;;
53389;SDS011;39288;42.970;1.524;2023-04-15T01:27:11;17.80;;;3.70;;
53389;SDS011;39288;42.970;1.524;2023-04-15T01:28:11;15.53;;;3.57;;
53389;SDS011;39288;42.970;1.524;2023-04-15T01:29:12;20.57;;;3.67;;
53389;SDS011;39288;42.970;1.524;2023-04-15T01:30:12;19.00;;;4.43;;
53389;SDS011;39288;42.970;1.524;2023-04-15T01:31:13;14.00;;;2.80;;
53389;SDS011;39288;42.970;1.524;2023-04-15T01:32:14;16.23;;;3.45;;
53389;SDS011;39288;42.970;1.524;2023-04-15T01:33:14;22.53;;;3.77;;
53389;SDS011;39288;42.970;1.524;2023-04-15T01:34:15;13.90;;;3.07;;
53389;SDS011;39288;42.970;1.524;2023-04-15T01:35:15;9.73;;;2.77;;
53389;SDS011;39288;42.970;1.524;2023-04-15T01:36:16;16.87;;;3.57;;
53389;SDS011;39288;42.970;1.524;2023-04-15T01:37:16;18.20;;;3.50;;
53389;SDS011;39288;42.970;1.524;2023-04-15T01:38:17;18.30;;;3.23;;
53389;SDS011;39288;42.970;1.524;2023-04-15T01:39:17;18.53;;;4.17;;
53389;SDS011;39288;42.970;1.524;2023-04-15T01:40:18;10.93;;;3.37;;
53389;SDS011;39288;42.970;1.524;2023-04-15T01:41:25;14.95;;;2.90;;
53389;SDS011;39288;42.970;1.524;2023-04-15T01:42:26;13.93;;;3.08;;
53389;SDS011;39288;42.970;1.524;2023-04-15T01:43:27;11.93;;;2.53;;
53389;SDS011;39288;42.970;1.524;2023-04-15T01:44:28;10.17;;;2.90;;
53389;SDS011;39288;42.970;1.524;2023-04-15T01:45:28;11.77;;;2.87;;
53389;SDS011;39288;42.970;1.524;2023-04-15T01:46:29;10.03;;;2.43;;
53389;SDS011;39288;42.970;1.524;2023-04-15T01:47:29;15.73;;;3.50;;
53389;SDS011;39288;42.970;1.524;2023-04-15T01:48:30;9.60;;;2.00;;
53389;SDS011;39288;42.970;1.524;2023-04-15T01:49:31;11.15;;;2.10;;
53389;SDS011;39288;42.970;1.524;2023-04-15T01:50:31;5.37;;;2.20;;
53389;SDS011;39288;42.970;1.524;2023-04-15T01:51:32;9.90;;;2.00;;
53389;SDS011;39288;42.970;1.524;2023-04-15T01:52:33;11.20;;;2.60;;
53389;SDS011;39288;42.970;1.524;2023-04-15T01:53:33;11.50;;;2.40;;
53389;SDS011;39288;42.970;1.524;2023-04-15T01:54:34;9.97;;;2.00;;
53389;SDS011;39288;42.970;1.524;2023-04-15T01:55:34;6.70;;;1.80;;
53389;SDS011;39288;42.970;1.524;2023-04-15T01:56:35;7.43;;;1.70;;
53389;SDS011;39288;42.970;1.524;2023-04-15T01:57:35;11.27;;;2.10;;
53389;SDS011;39288;42.970;1.524;2023-04-15T01:58:36;13.00;;;2.27;;
53389;SDS011;39288;42.970;1.524;2023-04-15T01:59:36;7.97;;;1.50;;
53389;SDS011;39288;42.970;1.524;2023-04-15T02:00:37;9.93;;;2.17;;
53389;SDS011;39288;42.970;1.524;2023-04-15T02:01:37;6.40;;;1.47;;
53389;SDS011;39288;42.970;1.524;2023-04-15T02:02:38;8.60;;;1.90;;
53389;SDS011;39288;42.970;1.524;2023-04-15T02:03:39;7.87;;;1.53;;
53389;SDS011;39288;42.970;1.524;2023-04-15T02:04:39;5.50;;;1.83;;
53389;SDS011;39288;42.970;1.524;2023-04-15T02:05:40;4.83;;;1.50;;
53389;SDS011;39288;42.970;1.524;2023-04-15T02:06:43;6.03;;;2.30;;
53389;SDS011;39288;42.970;1.524;2023-04-15T02:07:44;5.97;;;1.70;;
53389;SDS011;39288;42.970;1.524;2023-04-15T02:08:44;7.10;;;1.40;;
53389;SDS011;39288;42.970;1.524;2023-04-15T02:09:45;6.37;;;1.53;;
53389;SDS011;39288;42.970;1.524;2023-04-15T02:10:45;6.20;;;1.83;;
53389;SDS011;39288;42.970;1.524;2023-04-15T02:11:46;8.57;;;1.60;;
53389;SDS011;39288;42.970;1.524;2023-04-15T02:12:46;8.87;;;1.70;;
53389;SDS011;39288;42.970;1.524;2023-04-15T02:13:47;8.30;;;1.40;;
53389;SDS011;39288;42.970;1.524;2023-04-15T02:14:47;11.67;;;2.00;;
53389;SDS011;39288;42.970;1.524;2023-04-15T02:15:48;8.20;;;2.17;;
53389;SDS011;39288;42.970;1.524;2023-04-15T02:16:49;10.30;;;2.47;;
53389;SDS011;39288;42.970;1.524;2023-04-15T02:17:50;10.20;;;2.30;;
53389;SDS011;39288;42.970;1.524;2023-04-15T02:18:51;10.82;;;2.13;;
53389;SDS011;39288;42.970;1.524;2023-04-15T02:19:52;11.40;;;2.03;;
53389;SDS011;39288;42.970;1.524;2023-04-15T02:20:52;10.83;;;1.83;;
53389;SDS011;39288;42.970;1.524;2023-04-15T02:21:52;10.43;;;2.03;;
53389;SDS011;39288;42.970;1.524;2023-04-15T02:22:53;9.83;;;2.00;;
53389;SDS011;39288;42.970;1.524;2023-04-15T02:23:53;12.70;;;2.40;;
53389;SDS011;39288;42.970;1.524;2023-04-15T02:24:54;10.48;;;2.10;;
53389;SDS011;39288;42.970;1.524;2023-04-15T02:25:55;7.27;;;1.83;;
53389;SDS011;39288;42.970;1.524;2023-04-15T02:26:55;8.57;;;2.60;;
53389;SDS011;39288;42.970;1.524;2023-04-15T02:27:56;10.37;;;2.40;;
53389;SDS011;39288;42.970;1.524;2023-04-15T02:28:57;7.87;;;2.17;;
53389;SDS011;39288;42.970;1.524;2023-04-15T02:29:58;8.77;;;2.43;;
53389;SDS011;39288;42.970;1.524;2023-04-15T02:30:58;11.47;;;2.27;;
53389;SDS011;39288;42.970;1.524;2023-04-15T02:31:58;12.20;;;2.37;;
53389;SDS011;39288;42.970;1.524;2023-04-15T02:32:59;12.27;;;3.83;;
53389;SDS011;39288;42.970;1.524;2023-04-15T02:34:00;8.63;;;1.95;;
53389;SDS011;39288;42.970;1.524;2023-04-15T02:35:04;9.13;;;1.42;;
53389;SDS011;39288;42.970;1.524;2023-04-15T02:36:05;9.43;;;2.60;;
53389;SDS011;39288;42.970;1.524;2023-04-15T02:37:07;9.65;;;1.42;;
53389;SDS011;39288;42.970;1.524;2023-04-15T02:38:08;8.82;;;1.75;;
53389;SDS011;39288;42.970;1.524;2023-04-15T02:39:09;7.70;;;1.73;;
53389;SDS011;39288;42.970;1.524;2023-04-15T02:40:11;11.38;;;1.67;;
53389;SDS011;39288;42.970;1.524;2023-04-15T02:41:12;10.90;;;2.17;;
53389;SDS011;39288;42.970;1.524;2023-04-15T02:42:13;10.33;;;2.00;;
53389;SDS011;39288;42.970;1.524;2023-04-15T02:43:13;8.73;;;1.77;;
53389;SDS011;39288;42.970;1.524;2023-04-15T02:44:14;11.53;;;2.07;;
53389;SDS011;39288;42.970;1.524;2023-04-15T02:45:14;10.73;;;2.30;;
53389;SDS011;39288;42.970;1.524;2023-04-15T02:46:15;33.20;;;2.50;;
53389;SDS011;39288;42.970;1.524;2023-04-15T02:47:15;12.27;;;2.03;;
53389;SDS011;39288;42.970;1.524;2023-04-15T02:48:16;14.37;;;2.30;;
53389;SDS011;39288;42.970;1.524;2023-04-15T02:49:18;9.85;;;2.35;;
53389;SDS011;39288;42.970;1.524;2023-04-15T02:50:18;14.40;;;2.30;;
53389;SDS011;39288;42.970;1.524;2023-04-15T02:51:20;10.15;;;2.33;;
53389;SDS011;39288;42.970;1.524;2023-04-15T02:52:21;14.00;;;3.67;;
53389;SDS011;39288;42.970;1.524;2023-04-15T02:53:22;10.80;;;2.33;;
53389;SDS011;39288;42.970;1.524;2023-04-15T02:54:22;9.03;;;2.23;;
53389;SDS011;39288;42.970;1.524;2023-04-15T02:55:23;10.60;;;2.60;;
53389;SDS011;39288;42.970;1.524;2023-04-15T02:56:24;10.30;;;1.70;;
53389;SDS011;39288;42.970;1.524;2023-04-15T02:57:25;9.57;;;2.07;;
53389;SDS011;39288;42.970;1.524;2023-04-15T02:58:28;13.50;;;2.25;;
53389;SDS011;39288;42.970;1.524;2023-04-15T02:59:29;9.53;;;2.50;;
53389;SDS011;39288;42.970;1.524;2023-04-15T03:00:29;11.10;;;2.00;;
53389;SDS011;39288;42.970;1.524;2023-04-15T03:01:30;10.13;;;1.93;;
53389;SDS011;39288;42.970;1.524;2023-04-15T03:02:33;10.43;;;2.97;;
53389;SDS011;39288;42.970;1.524;2023-04-15T03:03:35;10.68;;;2.28;;
53389;SDS011;39288;42.970;1.524;2023-04-15T03:04:35;10.23;;;2.07;;
53389;SDS011;39288;42.970;1.524;2023-04-15T03:05:36;10.80;;;2.50;;
53389;SDS011;39288;42.970;1.524;2023-04-15T03:06:38;9.02;;;2.35;;
53389;SDS011;39288;42.970;1.524;2023-04-15T03:07:38;10.83;;;2.63;;
53389;SDS011;39288;42.970;1.524;2023-04-15T03:08:42;16.23;;;2.70;;
53389;SDS011;39288;42.970;1.524;2023-04-15T03:09:42;11.50;;;2.20;;
53389;SDS011;39288;42.970;1.524;2023-04-15T03:10:43;9.53;;;2.10;;
53389;SDS011;39288;42.970;1.524;2023-04-15T03:11:44;7.47;;;1.93;;
53389;SDS011;39288;42.970;1.524;2023-04-15T03:12:44;6.80;;;1.83;;
53389;SDS011;39288;42.970;1.524;2023-04-15T03:13:45;11.70;;;2.13;;
53389;SDS011;39288;42.970;1.524;2023-04-15T03:14:46;11.85;;;1.92;;
53389;SDS011;39288;42.970;1.524;2023-04-15T03:15:46;10.00;;;2.80;;
53389;SDS011;39288;42.970;1.524;2023-04-15T03:16:47;8.90;;;2.30;;
53389;SDS011;39288;42.970;1.524;2023-04-15T03:17:49;10.82;;;2.00;;
53389;SDS011;39288;42.970;1.524;2023-04-15T03:18:50;13.20;;;2.07;;
53389;SDS011;39288;42.970;1.524;2023-04-15T03:19:50;11.77;;;2.70;;
53389;SDS011;39288;42.970;1.524;2023-04-15T03:20:51;8.93;;;1.97;;
53389;SDS011;39288;42.970;1.524;2023-04-15T03:21:51;10.77;;;2.00;;
53389;SDS011;39288;42.970;1.524;2023-04-15T03:22:52;8.37;;;2.00;;
53389;SDS011;39288;42.970;1.524;2023-04-15T03:23:52;13.37;;;2.93;;
53389;SDS011;39288;42.970;1.524;2023-04-15T03:24:53;12.67;;;2.17;;
53389;SDS011;39288;42.970;1.524;2023-04-15T03:25:53;14.13;;;2.20;;
53389;SDS011;39288;42.970;1.524;2023-04-15T03:26:56;12.98;;;2.35;;
53389;SDS011;39288;42.970;1.524;2023-04-15T03:27:56;16.50;;;2.30;;
53389;SDS011;39288;42.970;1.524;2023-04-15T03:28:57;15.13;;;3.60;;
53389;SDS011;39288;42.970;1.524;2023-04-15T03:29:57;15.30;;;2.43;;
53389;SDS011;39288;42.970;1.524;2023-04-15T03:30:58;17.77;;;2.80;;
53389;SDS011;39288;42.970;1.524;2023-04-15T03:31:59;11.27;;;2.33;;
53389;SDS011;39288;42.970;1.524;2023-04-15T03:32:59;14.90;;;2.90;;
53389;SDS011;39288;42.970;1.524;2023-04-15T03:33:59;14.57;;;2.33;;
53389;SDS011;39288;42.970;1.524;2023-04-15T03:35:00;11.37;;;2.07;;
53389;SDS011;39288;42.970;1.524;2023-04-15T03:36:00;11.30;;;2.20;;
53389;SDS011;39288;42.970;1.524;2023-04-15T03:37:01;8.17;;;2.07;;
53389;SDS011;39288;42.970;1.524;2023-04-15T03:38:01;11.07;;;1.73;;
53389;SDS011;39288;42.970;1.524;2023-04-15T03:39:02;12.17;;;2.23;;
53389;SDS011;39288;42.970;1.524;2023-04-15T03:40:03;11.70;;;2.13;;
53389;SDS011;39288;42.970;1.524;2023-04-15T03:41:04;9.97;;;1.60;;
53389;SDS011;39288;42.970;1.524;2023-04-15T03:42:04;9.90;;;2.10;;
53389;SDS011;39288;42.970;1.524;2023-04-15T03:43:05;9.60;;;2.10;;
53389;SDS011;39288;42.970;1.524;2023-04-15T03:44:05;8.33;;;1.50;;
53389;SDS011;39288;42.970;1.524;2023-04-15T03:45:06;9.87;;;2.10;;
53389;SDS011;39288;42.970;1.524;2023-04-15T03:46:07;5.33;;;1.80;;
53389;SDS011;39288;42.970;1.524;2023-04-15T03:47:07;8.13;;;1.57;;
53389;SDS011;39288;42.970;1.524;2023-04-15T03:48:07;5.27;;;1.43;;
53389;SDS011;39288;42.970;1.524;2023-04-15T03:49:09;11.53;;;2.07;;
53389;SDS011;39288;42.970;1.524;2023-04-15T03:50:10;8.88;;;1.42;;
53389;SDS011;39288;42.970;1.524;2023-04-15T03:51:10;8.47;;;2.57;;
53389;SDS011;39288;42.970;1.524;2023-04-15T03:52:11;9.83;;;1.93;;
53389;SDS011;39288;42.970;1.524;2023-04-15T03:53:11;7.43;;;2.13;;
53389;SDS011;39288;42.970;1.524;2023-04-15T03:54:12;8.50;;;1.70;;
53389;SDS011;39288;42.970;1.524;2023-04-15T03:55:14;8.35;;;2.15;;
53389;SDS011;39288;42.970;1.524;2023-04-15T03:56:14;10.07;;;1.87;;
53389;SDS011;39288;42.970;1.524;2023-04-15T03:57:15;9.52;;;1.92;;
53389;SDS011;39288;42.970;1.524;2023-04-15T03:58:15;7.80;;;1.40;;
53389;SDS011;39288;42.970;1.524;2023-04-15T03:59:16;9.10;;;1.47;;
53389;SDS011;39288;42.970;1.524;2023-04-15T04:00:16;7.70;;;1.43;;
53389;SDS011;39288;42.970;1.524;2023-04-15T04:01:17;17.45;;;2.58;;
53389;SDS011;39288;42.970;1.524;2023-04-15T04:02:18;5.80;;;1.30;;
53389;SDS011;39288;42.970;1.524;2023-04-15T04:03:18;9.03;;;1.63;;
53389;SDS011;39288;42.970;1.524;2023-04-15T04:04:19;7.17;;;1.30;;
53389;SDS011;39288;42.970;1.524;2023-04-15T04:05:20;6.13;;;1.60;;
53389;SDS011;39288;42.970;1.524;2023-04-15T04:06:20;7.73;;;1.50;;
53389;SDS011;39288;42.970;1.524;2023-04-15T04:07:21;6.00;;;1.53;;
53389;SDS011;39288;42.970;1.524;2023-04-15T04:08:22;6.13;;;1.42;;
53389;SDS011;39288;42.970;1.524;2023-04-15T04:09:23;8.93;;;1.63;;
53389;SDS011;39288;42.970;1.524;2023-04-15T04:10:23;9.23;;;1.60;;
53389;SDS011;39288;42.970;1.524;2023-04-15T04:11:25;7.95;;;1.80;;
53389;SDS011;39288;42.970;1.524;2023-04-15T04:12:27;6.95;;;1.80;;
53389;SDS011;39288;42.970;1.524;2023-04-15T04:13:27;10.57;;;1.53;;
53389;SDS011;39288;42.970;1.524;2023-04-15T04:14:28;5.60;;;1.57;;
53389;SDS011;39288;42.970;1.524;2023-04-15T04:15:28;10.13;;;1.83;;
53389;SDS011;39288;42.970;1.524;2023-04-15T04:16:29;15.10;;;3.00;;
53389;SDS011;39288;42.970;1.524;2023-04-15T04:17:29;7.73;;;1.30;;
53389;SDS011;39288;42.970;1.524;2023-04-15T04:18:30;8.23;;;1.13;;
53389;SDS011;39288;42.970;1.524;2023-04-15T04:19:31;7.60;;;1.95;;
53389;SDS011;39288;42.970;1.524;2023-04-15T04:20:32;7.53;;;1.40;;
53389;SDS011;39288;42.970;1.524;2023-04-15T04:21:33;8.50;;;1.80;;
53389;SDS011;39288;42.970;1.524;2023-04-15T04:22:39;9.57;;;2.13;;
53389;SDS011;39288;42.970;1.524;2023-04-15T04:23:40;10.63;;;1.42;;
53389;SDS011;39288;42.970;1.524;2023-04-15T04:24:41;7.47;;;1.70;;
53389;SDS011;39288;42.970;1.524;2023-04-15T04:25:41;10.87;;;1.97;;
53389;SDS011;39288;42.970;1.524;2023-04-15T04:26:42;9.70;;;2.85;;
53389;SDS011;39288;42.970;1.524;2023-04-15T04:27:43;9.70;;;1.73;;
53389;SDS011;39288;42.970;1.524;2023-04-15T04:28:44;11.13;;;1.75;;
53389;SDS011;39288;42.970;1.524;2023-04-15T04:29:45;9.85;;;2.05;;
53389;SDS011;39288;42.970;1.524;2023-04-15T04:30:46;9.07;;;1.92;;
53389;SDS011;39288;42.970;1.524;2023-04-15T04:31:47;7.77;;;1.40;;
53389;SDS011;39288;42.970;1.524;2023-04-15T04:32:48;9.60;;;1.47;;
53389;SDS011;39288;42.970;1.524;2023-04-15T04:33:49;8.10;;;1.48;;
53389;SDS011;39288;42.970;1.524;2023-04-15T04:34:50;8.80;;;1.40;;
53389;SDS011;39288;42.970;1.524;2023-04-15T04:35:50;9.17;;;1.40;;
53389;SDS011;39288;42.970;1.524;2023-04-15T04:36:51;8.63;;;1.52;;
53389;SDS011;39288;42.970;1.524;2023-04-15T04:37:51;7.47;;;1.63;;
53389;SDS011;39288;42.970;1.524;2023-04-15T04:38:52;12.15;;;1.75;;
53389;SDS011;39288;42.970;1.524;2023-04-15T04:39:53;8.30;;;1.53;;
53389;SDS011;39288;42.970;1.524;2023-04-15T04:40:53;6.40;;;1.43;;
53389;SDS011;39288;42.970;1.524;2023-04-15T04:41:54;10.23;;;1.97;;
53389;SDS011;39288;42.970;1.524;2023-04-15T04:42:54;7.73;;;1.80;;
53389;SDS011;39288;42.970;1.524;2023-04-15T04:43:55;11.43;;;1.93;;
53389;SDS011;39288;42.970;1.524;2023-04-15T04:44:56;6.70;;;1.43;;
53389;SDS011;39288;42.970;1.524;2023-04-15T04:45:56;9.30;;;2.00;;
53389;SDS011;39288;42.970;1.524;2023-04-15T04:46:56;7.10;;;1.30;;
53389;SDS011;39288;42.970;1.524;2023-04-15T04:47:57;7.27;;;2.07;;
53389;SDS011;39288;42.970;1.524;2023-04-15T04:48:57;9.10;;;2.10;;
53389;SDS011;39288;42.970;1.524;2023-04-15T04:49:58;9.77;;;1.60;;
53389;SDS011;39288;42.970;1.524;2023-04-15T04:50:58;10.03;;;1.63;;
53389;SDS011;39288;42.970;1.524;2023-04-15T04:51:59;8.50;;;2.13;;
53389;SDS011;39288;42.970;1.524;2023-04-15T04:53:00;9.50;;;1.70;;
53389;SDS011;39288;42.970;1.524;2023-04-15T04:54:00;6.60;;;1.30;;
53389;SDS011;39288;42.970;1.524;2023-04-15T04:55:01;8.87;;;1.43;;
53389;SDS011;39288;42.970;1.524;2023-04-15T04:56:02;10.10;;;1.73;;
53389;SDS011;39288;42.970;1.524;2023-04-15T04:57:03;8.47;;;2.03;;
53389;SDS011;39288;42.970;1.524;2023-04-15T04:58:04;8.47;;;1.93;;
53389;SDS011;39288;42.970;1.524;2023-04-15T04:59:04;6.70;;;1.50;;
53389;SDS011;39288;42.970;1.524;2023-04-15T05:00:06;10.48;;;1.50;;
53389;SDS011;39288;42.970;1.524;2023-04-15T05:01:07;8.25;;;1.55;;
53389;SDS011;39288;42.970;1.524;2023-04-15T05:02:09;3.95;;;1.20;;
53389;SDS011;39288;42.970;1.524;2023-04-15T05:03:09;3.77;;;1.03;;
53389;SDS011;39288;42.970;1.524;2023-04-15T05:04:09;7.40;;;1.37;;
53389;SDS011;39288;42.970;1.524;2023-04-15T05:05:10;6.83;;;1.57;;
53389;SDS011;39288;42.970;1.524;2023-04-15T05:06:11;7.57;;;1.30;;
53389;SDS011;39288;42.970;1.524;2023-04-15T05:07:11;8.37;;;1.07;;
53389;SDS011;39288;42.970;1.524;2023-04-15T05:08:11;7.53;;;1.50;;
53389;SDS011;39288;42.970;1.524;2023-04-15T05:09:12;7.77;;;1.60;;
53389;SDS011;39288;42.970;1.524;2023-04-15T05:10:12;6.33;;;1.27;;
53389;SDS011;39288;42.970;1.524;2023-04-15T05:11:14;5.57;;;1.13;;
53389;SDS011;39288;42.970;1.524;2023-04-15T05:12:15;6.40;;;1.37;;
53389;SDS011;39288;42.970;1.524;2023-04-15T05:13:15;4.20;;;0.70;;
53389;SDS011;39288;42.970;1.524;2023-04-15T05:14:16;4.60;;;1.00;;
53389;SDS011;39288;42.970;1.524;2023-04-15T05:15:16;5.50;;;1.50;;
53389;SDS011;39288;42.970;1.524;2023-04-15T05:16:17;4.10;;;0.97;;
53389;SDS011;39288;42.970;1.524;2023-04-15T05:17:18;6.70;;;1.13;;
53389;SDS011;39288;42.970;1.524;2023-04-15T05:18:19;9.77;;;1.23;;
53389;SDS011;39288;42.970;1.524;2023-04-15T05:19:20;7.83;;;1.33;;
53389;SDS011;39288;42.970;1.524;2023-04-15T05:20:20;7.63;;;1.37;;
53389;SDS011;39288;42.970;1.524;2023-04-15T05:21:21;10.30;;;2.77;;
53389;SDS011;39288;42.970;1.524;2023-04-15T05:22:21;5.73;;;1.53;;
53389;SDS011;39288;42.970;1.524;2023-04-15T05:23:22;6.03;;;1.57;;
53389;SDS011;39288;42.970;1.524;2023-04-15T05:24:22;7.87;;;1.53;;
53389;SDS011;39288;42.970;1.524;2023-04-15T05:25:23;8.67;;;1.50;;
53389;SDS011;39288;42.970;1.524;2023-04-15T05:26:23;5.43;;;1.40;;
53389;SDS011;39288;42.970;1.524;2023-04-15T05:27:24;7.07;;;2.30;;
53389;SDS011;39288;42.970;1.524;2023-04-15T05:28:24;10.83;;;2.47;;
53389;SDS011;39288;42.970;1.524;2023-04-15T05:29:25;8.57;;;2.20;;
53389;SDS011;39288;42.970;1.524;2023-04-15T05:30:25;12.23;;;2.67;;
53389;SDS011;39288;42.970;1.524;2023-04-15T05:31:25;8.33;;;2.53;;
53389;SDS011;39288;42.970;1.524;2023-04-15T05:32:26;10.23;;;2.53;;
53389;SDS011;39288;42.970;1.524;2023-04-15T05:33:26;7.67;;;3.43;;
53389;SDS011;39288;42.970;1.524;2023-04-15T05:34:27;8.80;;;3.57;;
53389;SDS011;39288;42.970;1.524;2023-04-15T05:35:27;13.97;;;4.30;;
53389;SDS011;39288;42.970;1.524;2023-04-15T05:36:28;13.63;;;4.40;;
53389;SDS011;39288;42.970;1.524;2023-04-15T05:37:28;13.10;;;3.97;;
53389;SDS011;39288;42.970;1.524;2023-04-15T05:38:29;10.80;;;3.47;;
53389;SDS011;39288;42.970;1.524;2023-04-15T05:39:30;11.57;;;3.93;;
53389;SDS011;39288;42.970;1.524;2023-04-15T05:40:31;7.35;;;3.10;;
53389;SDS011;39288;42.970;1.524;2023-04-15T05:41:32;9.33;;;3.17;;
53389;SDS011;39288;42.970;1.524;2023-04-15T05:42:33;10.57;;;3.85;;
53389;SDS011;39288;42.970;1.524;2023-04-15T05:43:34;13.13;;;4.72;;
53389;SDS011;39288;42.970;1.524;2023-04-15T05:44:35;6.20;;;2.60;;
53389;SDS011;39288;42.970;1.524;2023-04-15T05:45:35;11.30;;;3.20;;
53389;SDS011;39288;42.970;1.524;2023-04-15T05:46:36;8.40;;;2.90;;
53389;SDS011;39288;42.970;1.524;2023-04-15T05:47:36;10.27;;;3.73;;
53389;SDS011;39288;42.970;1.524;2023-04-15T05:48:37;6.80;;;2.47;;
53389;SDS011;39288;42.970;1.524;2023-04-15T05:49:37;5.70;;;2.60;;
53389;SDS011;39288;42.970;1.524;2023-04-15T05:50:41;10.97;;;2.90;;
53389;SDS011;39288;42.970;1.524;2023-04-15T05:51:41;9.93;;;3.00;;
53389;SDS011;39288;42.970;1.524;2023-04-15T05:52:41;6.97;;;2.30;;
53389;SDS011;39288;42.970;1.524;2023-04-15T05:53:42;10.60;;;2.43;;
53389;SDS011;39288;42.970;1.524;2023-04-15T05:54:42;8.10;;;2.20;;
53389;SDS011;39288;42.970;1.524;2023-04-15T05:55:43;6.47;;;1.73;;
53389;SDS011;39288;42.970;1.524;2023-04-15T05:56:43;9.33;;;1.80;;
53389;SDS011;39288;42.970;1.524;2023-04-15T05:57:44;4.50;;;1.80;;
53389;SDS011;39288;42.970;1.524;2023-04-15T05:58:45;7.87;;;2.10;;
53389;SDS011;39288;42.970;1.524;2023-04-15T05:59:45;6.63;;;1.43;;
53389;SDS011;39288;42.970;1.524;2023-04-15T06:00:45;5.50;;;1.70;;
53389;SDS011;39288;42.970;1.524;2023-04-15T06:01:46;4.70;;;1.67;;
53389;SDS011;39288;42.970;1.524;2023-04-15T06:02:47;9.83;;;1.87;;
53389;SDS011;39288;42.970;1.524;2023-04-15T06:03:48;7.53;;;1.47;;
53389;SDS011;39288;42.970;1.524;2023-04-15T06:04:50;7.18;;;2.05;;